METAR Data
IDs: Format: Raw Decoded Include TAF

Data at: 0932 UTC 18 Jan 2019

PADQ 180853Z AUTO 00000KT 10SM CLR 02/01 A2957 RMK AO2 SLP014 T00170006 400610006 58002 TSNO
PADQ 180753Z AUTO 29005KT 10SM CLR 02/01 A2957 RMK AO2 SLP015 T00170006 TSNO
PADQ 180653Z AUTO 29004KT 10SM CLR 01/01 A2958 RMK AO2 SLP016 T00110011 TSNO
PADQ 180553Z AUTO 32007KT 10SM BKN035 04/03 A2958 RMK AO2 SLP016 T00390028 10061 20039 55003 TSNO
PADQ 180453Z 32008KT 10SM OVC036 04/03 A2957 RMK AO2 SLP014 T00440033
PADQ 180353Z 27004KT 10SM SCT023 OVC034 04/04 A2958 RMK SLP017 T00440039 VIA AUTODIAL
PADQ 180333Z 33005KT 10SM BKN022 OVC032 05/04 A2958 RMK AO2 T00500039
PADQ 180300Z 29003KT 10SM SCT018 OVC032 04/04 A2958 RMK AO2 T00440039
PADQ 180220Z 27003KT 10SM BKN017 OVC031 04/04 A2959 RMK AO2 T00440039
PADQ 180153Z 00000KT 10SM FEW019 OVC036 05/04 A2959 RMK AO2 SLP019 T00500044
PADQ 180133Z 33004KT 10SM SCT014 OVC036 06/04 A2959 RMK AO2 T00560044
PADQ 180053Z 32003KT 10SM BKN012 BKN025 OVC031 06/04 A2959 RMK AO2 SLP020 T00560044
PADQ 172353Z 01003KT 10SM BKN012 OVC020 06/05 A2959 RMK AO2 SLP020 T00610050 10061 20056 58006
PADQ 172253Z 00000KT 10SM OVC030 06/05 A2960 RMK AO2 SLP023 T00610050
PADQ 172200Z 01004KT 10SM BKN025 OVC031 06/05 A2961 RMK AO2 T00610050
PADQ 172153Z 36005KT 10SM SCT024 OVC031 06/05 A2961 RMK AO2 SLP026 T00610050
PADQ 172053Z 04010KT 10SM OVC027 06/05 A2961 RMK AO2 SLP027 T00560050 50004
PADQ 171953Z 04011KT 10SM SCT011 OVC023 06/05 A2961 RMK SLP028 T00560050 VIA AUTODIAL
PADQ 171857Z 04011KT 9SM FEW008 OVC020 06/05 A2961 RMK AO2 T00560050
PADQ 171853Z 04010KT 7SM BKN010 OVC016 06/05 A2961 RMK AO2 SLP027 T00560050
PADQ 171809Z 04011KT 7SM BKN010 OVC016 06/05 A2960 RMK AO2 T00560050
PADQ 171802Z 03011KT 6SM BR BKN009 OVC015 06/05 A2960 RMK AO2 T00560050
PADQ 171753Z 04009KT 7SM BKN010 OVC016 06/05 A2960 RMK RAE20 CIG 008V013 SLP023 P0001 60027 T00560050 10056 20050 52002 VIA AUTODIAL
PADQ 171750Z 04010KT 7SM SCT010 OVC016 06/05 A2960 RMK RAE20 P0001 VIA AUTODIAL
PADQ 171709Z 04010KT 7SM -RA OVC014 06/05 A2960 RMK AO2 P0001 T00560050
PADQ 171653Z 04010KT 4SM -RA BR FEW009 OVC015 06/05 A2959 RMK SLP021 P0005 T00560050 VIA AUTODIAL
PADQ 171651Z 04011KT 4SM -RA BR SCT009 OVC015 06/05 A2959 RMK P0005 VIA AUTODIAL
PADQ 171555Z 04011KT 4SM RA BR OVC005 05/05 A2959 RMK AO2 CIG 004V009 P0000 T00500050
PADQ 171553Z 04011KT 1 3/4SM RA BR OVC005 05/05 A2959 RMK AO2 CIG 004V011 SLP022 P0007 T00500050
PADQ 171525Z 05012KT 2SM -RA BR OVC005 05/05 A2959 RMK AO2 P0004 T00500050
PADQ 171505Z AUTO 05009KT 1 1/2SM -RA BR OVC005 05/05 A2959 RMK AO2 P0002 T00500050 TSNO
PADQ 171453Z AUTO 06008KT 2 1/2SM RA BR OVC005 05/05 A2960 RMK SLP023 P0007 60014 T00500050 53002 TSNO VIA AUTODIAL
PADQ 171353Z AUTO 05009KT 4SM -RA BR OVC005 05/05 A2959 RMK AO2 SLP021 P0001 T00500050 TSNO
PADQ 171253Z AUTO 07009KT 5SM -RA BR OVC006 06/05 A2959 RMK AO2 SLP021 P0006 T00560050 TSNO
PADQ 171153Z AUTO 06011KT 5SM RA BR OVC006 06/06 A2959 RMK SLP020 P0006 60031 70060 T00560056 10056 20044 51003 TSNO VIA AUTODIAL
PADQ 171053Z AUTO 06010KT 6SM RA BR OVC006 06/05 A2959 RMK AO2 SLP020 P0008 T00560050 TSNO
PADQ 170953Z AUTO 07011KT 5SM RA BR BKN006 OVC024 06/06 A2958 RMK AO2 SLP018 P0008 T00560056 TSNO
PADQ 170853Z AUTO 04007KT 7SM -RA OVC005 05/05 A2958 RMK SLP017 P0004 60009 T00500050 400670044 51008 TSNO VIA AUTODIAL
PADQ 170800Z AUTO 04007KT 3SM -RA BR OVC005 05/05 A2957 RMK AO2 P0000 T00500050 TSNO
PADQ 170753Z AUTO 05006KT 4SM -RA BR BKN003 OVC007 05/05 A2957 RMK AO2 SLP014 P0003 T00500050 TSNO
PADQ 170741Z AUTO 07007KT 4SM -RA BR OVC005 05/05 A2957 RMK AO2 P0003 T00500050 TSNO
PADQ 170712Z AUTO 00000KT 2SM -RA BR OVC004 04/04 A2957 RMK AO2 P0001 T00440044 TSNO
PADQ 170705Z AUTO 00000KT 2SM -RA BR OVC006 04/04 A2957 RMK AO2 P0001 T00440044 TSNO
PADQ 170653Z AUTO 26003KT 1 1/2SM -RA BR OVC005 04/04 A2957 RMK AO2 RAB23 SLP012 P0002 T00440044 TSNO
PADQ 170646Z AUTO 00000KT 1 1/2SM -RA BR SCT005 OVC008 04/04 A2956 RMK AO2 RAB23 P0001 T00440044 TSNO
PADQ 170613Z AUTO 05004KT 2 1/2SM BR FEW009 OVC014 04/04 A2956 RMK AO2 T00440044 TSNO
PADQ 170604Z AUTO 05004KT 3SM BR FEW009 OVC014 04/04 A2956 RMK AO2 T00440044 TSNO
PADQ 170553Z AUTO 00000KT 5SM BR OVC016 04/04 A2955 RMK AO2 SLP008 60001 T00440044 10056 20044 51009 TSNO
PADQ 170453Z 09004KT 10SM BKN015 OVC024 05/04 A2955 RMK AO2 SLP006 T00500044
PADQ 170356Z 10007KT 5SM BR OVC016 05/05 A2954 RMK AO2 T00500050
PADQ 170353Z 09008KT 5SM BR BKN010 OVC018 05/05 A2954 RMK AO2 SLP003 T00500050
PADQ 170301Z 08005KT 9SM BKN010 OVC018 05/05 A2953 RMK AO2 T00500050
PADQ 170253Z 08005KT 7SM BKN007 OVC017 05/05 A2953 RMK AO2 SLP999 60001 T00500050 52006
PADQ 170241Z 09005KT 5SM BR SCT007 OVC014 04/04 A2952 RMK AO2 T00440044
PADQ 170153Z 10010KT 2 1/2SM BR SCT005 SCT010 OVC017 05/05 A2951 RMK AO2 VIS 2V3 RAE12 SLP993 P0001 T00500050
PADQ 170144Z 09012KT 2SM BR SCT006 BKN013 OVC017 05/05 A2950 RMK AO2 RAE12 P0001 T00500050
PADQ 170137Z 09011KT 1 3/4SM BR BKN006 BKN013 OVC019 05/05 A2950 RMK AO2 RAE12 P0001 T00500050
PADQ 170129Z 08009KT 5SM BR FEW006 SCT010 OVC017 05/05 A2950 RMK AO2 RAE12 P0001 T00500050
PADQ 170111Z 10008KT 3SM -RA BR OVC017 05/05 A2950 RMK AO2 P0001 T00500050
PADQ 170053Z 10011KT 1 3/4SM -RA BR FEW005 OVC019 05/05 A2949 RMK AO2 RAE02B23 SLP987 P0000 T00500050
PADQ 170042Z 09012KT 1 3/4SM -RA BR SCT005 SCT012 OVC017 06/05 A2949 RMK AO2 RAE02B23 P0000 T00560050
PADQ 170040Z 08010KT 2SM BR BKN005 BKN012 OVC017 06/06 A2949 RMK AO2 RAE02B23E35 P0000 T00560056
PADQ 170023Z 08008KT 2 1/2SM -RA BR SCT007 BKN012 OVC026 06/05 A2948 RMK AO2 RAE02B23 P0000 T00560050
PADQ 162353Z 11010KT 4SM -RA BR BKN015 OVC021 06/05 A2947 RMK AO2 RAB53 SLP982 P0000 60013 T00560050 10067 20056 51005
PADQ 162253Z 09010KT 5SM BR BKN026 OVC035 06/05 A2947 RMK AO2 SLP980 T00560050
PADQ 162227Z 10012KT 6SM BR SCT015 BKN020 OVC028 06/05 A2947 RMK AO2 T00560050
PADQ 162217Z 10013KT 7SM FEW017 SCT022 OVC030 06/05 A2947 RMK AO2 T00560050
PADQ 162153Z 10014KT 6SM BR FEW008 BKN029 OVC034 06/05 A2947 RMK AO2 RAB23E48 SLP981 P0000 T00560050
PADQ 162139Z 10014KT 2 1/2SM -RA BR FEW008 SCT013 OVC024 06/05 A2947 RMK AO2 RAB23 P0000 T00610050